Time;durP1;ratioP1;P1;durP2;ratioP2;P2;SDS_P1;SDS_P2;PMS_P1;PMS_P2;Temp;Humidity;BMP_temperature;BMP_pressure;BME280_temperature;BME280_humidity;BME280_pressure;Samples;Min_cycle;Max_cycle;Signal;HPM_P1;HPM_P2
2022/12/26 00:01:51;;;;;;;2.45;2.17;;;11.90;99.90;;;;;;6010848;23;20186;-76
2022/12/26 00:04:19;;;;;;;2.92;2.63;;;11.90;99.90;;;;;;6002265;23;20273;-77
2022/12/26 00:06:46;;;;;;;2.60;2.40;;;11.90;99.90;;;;;;5980950;24;20242;-77
2022/12/26 00:09:13;;;;;;;2.63;2.35;;;11.90;99.90;;;;;;5986578;23;20214;-76
2022/12/26 00:11:42;;;;;;;2.40;2.20;;;11.90;99.90;;;;;;6012017;23;20226;-76
2022/12/26 00:14:11;;;;;;;2.38;2.17;;;11.80;99.90;;;;;;5987583;23;20190;-76
2022/12/26 00:16:40;;;;;;;2.60;2.40;;;11.80;99.90;;;;;;6012548;23;20196;-76
2022/12/26 00:19:08;;;;;;;2.97;2.70;;;11.90;99.90;;;;;;5986264;23;20566;-76
2022/12/26 00:21:36;;;;;;;2.95;2.75;;;11.90;99.90;;;;;;5986799;23;20198;-76
2022/12/26 00:24:04;;;;;;;2.42;2.22;;;11.90;99.90;;;;;;5997195;23;20206;-76
2022/12/26 00:26:34;;;;;;;2.47;2.28;;;12.00;99.90;;;;;;5982979;24;20267;-76
2022/12/26 00:29:03;;;;;;;2.63;2.42;;;12.00;99.90;;;;;;5982363;24;20200;-76
2022/12/26 00:31:34;;;;;;;2.47;2.28;;;12.00;99.90;;;;;;5983020;24;20195;-76
2022/12/26 00:34:02;;;;;;;2.50;2.30;;;12.10;99.90;;;;;;5981994;24;20227;-77
2022/12/26 00:36:31;;;;;;;2.30;2.10;;;12.00;99.90;;;;;;5980736;24;20289;-76
2022/12/26 00:39:02;;;;;;;2.60;2.40;;;12.00;99.90;;;;;;6011359;23;20653;-76
2022/12/26 00:41:30;;;;;;;2.55;2.35;;;12.00;99.90;;;;;;5985943;23;20537;-77
2022/12/26 00:43:57;;;;;;;2.60;2.40;;;12.00;99.90;;;;;;5987030;23;20190;-77
2022/12/26 00:46:27;;;;;;;3.13;2.83;;;11.90;99.90;;;;;;5993220;23;20199;-77
2022/12/26 00:48:54;;;;;;;2.75;2.55;;;11.90;99.90;;;;;;5981286;24;20202;-77
2022/12/26 00:51:22;;;;;;;2.95;2.63;;;11.90;99.90;;;;;;5989096;23;20264;-77
2022/12/26 00:53:49;;;;;;;2.17;2.08;;;11.80;99.90;;;;;;6008205;23;20210;-76
2022/12/26 00:56:17;;;;;;;3.40;2.63;;;11.80;99.90;;;;;;5987394;23;20509;-77
2022/12/26 00:58:44;;;;;;;2.70;2.50;;;11.70;99.90;;;;;;5987512;23;20206;-76
2022/12/26 01:01:14;;;;;;;2.65;2.45;;;11.70;99.90;;;;;;5963314;24;20273;-76
2022/12/26 01:03:45;;;;;;;3.05;2.80;;;11.70;99.90;;;;;;5958371;24;20180;-76
2022/12/26 01:06:12;;;;;;;6.43;3.30;;;11.70;99.90;;;;;;5981936;24;20231;-76
2022/12/26 01:08:39;;;;;;;2.33;2.13;;;11.60;99.90;;;;;;5984110;24;20191;-76
2022/12/26 01:11:09;;;;;;;2.72;2.53;;;11.60;99.90;;;;;;5982385;23;20258;-77
2022/12/26 01:13:37;;;;;;;3.25;2.60;;;11.50;99.90;;;;;;5980714;24;20234;-76
2022/12/26 01:16:06;;;;;;;2.95;2.75;;;11.50;99.90;;;;;;5984182;24;20310;-76
2022/12/26 01:18:34;;;;;;;3.40;3.10;;;11.50;99.90;;;;;;5960104;24;20213;-76
2022/12/26 01:21:06;;;;;;;3.25;2.95;;;11.40;99.90;;;;;;6005034;23;20194;-76
2022/12/26 01:23:33;;;;;;;3.10;2.80;;;11.30;99.90;;;;;;6010219;23;20225;-77
2022/12/26 01:26:02;;;;;;;2.90;2.70;;;11.30;99.90;;;;;;6010016;23;20544;-76
2022/12/26 01:28:29;;;;;;;3.20;2.90;;;11.20;99.90;;;;;;5960810;23;20260;-76
2022/12/26 01:31:00;;;;;;;2.95;2.75;;;11.20;99.90;;;;;;5985184;23;20217;-76
2022/12/26 01:33:27;;;;;;;2.90;2.70;;;11.10;99.90;;;;;;6010066;23;20213;-77
2022/12/26 01:35:54;;;;;;;3.00;2.80;;;11.10;99.90;;;;;;5963689;23;20217;-76
2022/12/26 01:38:24;;;;;;;3.00;2.80;;;11.10;99.90;;;;;;5978342;24;20202;-76
2022/12/26 01:41:15;;;;;;;4.00;2.50;;;11.00;99.90;;;;;;5983749;24;20226;-76
2022/12/26 01:44:01;;;;;;;3.20;2.90;;;11.00;99.90;;;;;;5985206;24;20218;-76
2022/12/26 01:46:32;;;;;;;3.22;2.97;;;10.90;99.90;;;;;;5980757;24;20199;-77
2022/12/26 01:49:05;;;;;;;2.50;2.30;;;11.00;99.90;;;;;;5937911;24;20190;-76
2022/12/26 01:51:36;;;;;;;3.22;2.58;;;10.90;99.90;;;;;;5984038;24;20194;-76
2022/12/26 01:54:10;;;;;;;2.65;2.45;;;10.90;99.90;;;;;;5984745;24;20277;-77
2022/12/26 01:56:39;;;;;;;2.95;2.70;;;10.80;99.90;;;;;;5966121;23;20190;-77
2022/12/26 01:59:11;;;;;;;3.30;3.00;;;10.80;99.90;;;;;;5986975;23;20202;-77
2022/12/26 02:01:41;;;;;;;3.17;2.88;;;10.80;99.90;;;;;;6011053;23;20229;-76
2022/12/26 02:06:57;;;;;;;3.08;2.75;;;10.70;99.90;;;;;;5999730;23;20589;-76
2022/12/26 02:09:27;;;;;;;3.20;2.90;;;10.60;99.90;;;;;;5981084;24;20254;-77
2022/12/26 02:12:01;;;;;;;2.88;2.67;;;10.60;99.90;;;;;;5955790;24;20205;-77
2022/12/26 02:14:28;;;;;;;3.40;3.10;;;10.60;99.90;;;;;;5989147;23;20739;-77
2022/12/26 02:16:56;;;;;;;5.00;2.92;;;10.60;99.90;;;;;;6012308;23;20193;-76
2022/12/26 02:19:32;;;;;;;2.90;2.70;;;10.50;99.90;;;;;;6021731;23;20268;-77
2022/12/26 02:22:27;;;;;;;3.15;2.85;;;10.50;99.90;;;;;;6023388;23;20280;-77
2022/12/26 02:25:21;;;;;;;3.15;2.85;;;10.50;99.90;;;;;;6023625;23;20197;-77
2022/12/26 02:28:16;;;;;;;3.08;2.88;;;10.50;99.90;;;;;;6023484;23;20240;-76
2022/12/26 02:30:49;;;;;;;3.70;2.97;;;10.50;99.90;;;;;;6007734;23;20295;-77
2022/12/26 02:33:49;;;;;;;3.55;2.60;;;10.40;99.90;;;;;;6011946;23;20245;-76
2022/12/26 02:36:35;;;;;;;2.75;2.55;;;10.50;99.90;;;;;;6010465;23;20357;-77
2022/12/26 02:39:17;;;;;;;2.95;2.72;;;10.50;99.90;;;;;;6002282;23;20200;-76
2022/12/26 02:41:54;;;;;;;2.60;2.40;;;10.50;99.90;;;;;;5984738;23;20199;-76
2022/12/26 02:47:15;;;;;;;2.67;2.38;;;10.70;99.90;;;;;;5983127;24;20218;-77
2022/12/26 03:13:11;;;;;;;2.78;2.42;;;11.20;99.90;;;;;;6012670;23;20225;-76
2022/12/26 03:18:33;;;;;;;2.90;2.70;;;10.90;99.90;;;;;;6011845;23;20187;-77
2022/12/26 03:21:04;;;;;;;2.53;2.33;;;10.90;99.90;;;;;;6011241;23;20194;-77
2022/12/26 03:23:32;;;;;;;2.38;2.17;;;10.90;99.90;;;;;;5987654;23;20186;-77
2022/12/26 03:28:48;;;;;;;2.70;2.50;;;10.80;99.90;;;;;;6012569;23;20341;-76
2022/12/26 03:31:14;;;;;;;2.35;2.15;;;10.80;99.90;;;;;;6012783;23;20194;-77
2022/12/26 03:36:38;;;;;;;2.50;2.30;;;10.80;99.90;;;;;;6012163;23;20209;-76
2022/12/26 03:39:13;;;;;;;3.22;2.40;;;10.80;99.90;;;;;;6012458;23;20289;-76
2022/12/26 04:44:29;;;;;;;2.60;2.40;;;11.50;99.90;;;;;;6007056;23;20194;-75
2022/12/26 04:46:56;;;;;;;2.35;2.15;;;11.50;99.90;;;;;;6007719;23;20618;-76
2022/12/26 04:52:11;;;;;;;2.65;2.45;;;11.40;99.90;;;;;;5986346;23;20281;-76
2022/12/26 04:54:38;;;;;;;2.30;2.10;;;11.40;99.90;;;;;;6007472;23;20206;-76
2022/12/26 04:57:06;;;;;;;2.20;2.10;;;11.50;99.90;;;;;;6007820;23;20285;-76
2022/12/26 04:59:35;;;;;;;3.25;2.60;;;11.50;99.90;;;;;;5993010;23;20269;-76
2022/12/26 05:10:33;;;;;;;2.40;2.20;;;11.40;99.90;;;;;;5946000;24;20600;-76
2022/12/26 05:13:01;;;;;;;3.95;2.40;;;11.40;99.90;;;;;;5980606;24;20290;-76
2022/12/26 05:28:40;;;;;;;3.42;3.13;;;11.40;99.90;;;;;;5980040;24;20197;-76
2022/12/26 05:29:16;;;;;;;2.33;2.13;;;11.60;99.90;;;;;;5981030;24;20210;-76
2022/12/26 05:31:45;;;;;;;3.63;2.65;;;11.60;99.90;;;;;;5980570;24;20579;-76
2022/12/26 05:34:14;;;;;;;3.25;2.65;;;11.70;99.90;;;;;;5956000;24;20274;-76
2022/12/26 05:36:45;;;;;;;2.45;2.25;;;11.70;99.90;;;;;;5980134;24;20226;-76
2022/12/26 05:39:13;;;;;;;2.47;2.28;;;11.80;99.90;;;;;;5980961;23;20226;-76
2022/12/26 05:41:40;;;;;;;2.65;2.45;;;11.80;99.90;;;;;;5955933;24;20241;-76
2022/12/26 05:44:08;;;;;;;2.45;2.25;;;11.80;99.90;;;;;;5979995;24;20187;-76
2022/12/26 05:46:35;;;;;;;2.60;2.40;;;11.90;99.90;;;;;;5989633;23;20194;-76
2022/12/26 05:49:04;;;;;;;1.90;1.80;;;11.90;99.90;;;;;;6008047;23;20194;-76
2022/12/26 05:51:32;;;;;;;2.50;2.30;;;11.90;99.90;;;;;;6007614;23;20198;-76
2022/12/26 05:53:59;;;;;;;2.40;2.20;;;11.90;99.90;;;;;;6009138;23;20210;-76
2022/12/26 05:56:26;;;;;;;2.88;2.65;;;11.90;99.90;;;;;;5983217;23;20244;-76
2022/12/26 05:58:55;;;;;;;2.55;2.35;;;11.90;99.90;;;;;;6009170;23;20258;-76
2022/12/26 06:01:22;;;;;;;2.10;2.00;;;11.90;99.90;;;;;;6007497;23;20193;-76
2022/12/26 06:03:55;;;;;;;2.10;2.00;;;11.90;99.90;;;;;;6009937;23;20190;-76
2022/12/26 06:06:25;;;;;;;2.25;2.05;;;11.90;99.90;;;;;;5995486;23;20241;-76
2022/12/26 06:08:54;;;;;;;2.30;2.10;;;11.90;99.90;;;;;;5979938;24;20687;-76
2022/12/26 06:11:22;;;;;;;2.50;2.30;;;11.90;99.90;;;;;;5955400;24;20246;-76
2022/12/26 06:13:49;;;;;;;2.20;2.10;;;11.90;99.90;;;;;;5980368;24;20293;-76
2022/12/26 06:16:18;;;;;;;2.15;1.95;;;11.90;99.90;;;;;;5955285;24;20703;-76
2022/12/26 06:18:45;;;;;;;2.25;2.13;;;11.90;99.90;;;;;;5981247;24;20195;-77
2022/12/26 06:21:15;;;;;;;3.28;2.03;;;12.00;99.90;;;;;;5980595;24;20604;-76
2022/12/26 06:23:43;;;;;;;2.50;2.30;;;11.90;99.90;;;;;;5981176;23;20218;-76
2022/12/26 06:26:11;;;;;;;2.15;2.05;;;11.90;99.90;;;;;;6008231;23;20226;-76
2022/12/26 06:28:40;;;;;;;3.85;2.25;;;11.90;99.90;;;;;;6008038;23;20597;-76
2022/12/26 06:31:09;;;;;;;2.40;2.20;;;11.90;99.90;;;;;;5985546;23;20194;-76
2022/12/26 06:33:36;;;;;;;2.55;2.35;;;11.90;99.90;;;;;;5979330;24;20265;-76
2022/12/26 06:36:08;;;;;;;2.55;2.22;;;11.90;99.90;;;;;;5979198;24;20708;-76
2022/12/26 06:38:35;;;;;;;2.00;1.90;;;11.90;99.90;;;;;;5979699;24;20205;-76
2022/12/26 06:41:06;;;;;;;2.10;1.95;;;11.90;99.90;;;;;;6005165;23;20648;-76
2022/12/26 06:43:33;;;;;;;2.45;2.22;;;11.90;99.90;;;;;;6008150;23;20205;-76
2022/12/26 06:46:03;;;;;;;2.17;1.98;;;11.90;99.90;;;;;;5983244;23;20197;-76
2022/12/26 06:48:30;;;;;;;2.00;1.80;;;11.80;99.90;;;;;;6007559;23;20256;-76
2022/12/26 06:50:58;;;;;;;2.60;2.40;;;11.90;99.90;;;;;;6006861;23;20198;-75
2022/12/26 06:53:25;;;;;;;4.57;2.25;;;11.90;99.90;;;;;;6007432;23;20735;-76
2022/12/26 06:55:52;;;;;;;3.55;2.50;;;11.90;99.90;;;;;;5982788;23;20190;-76
2022/12/26 06:58:21;;;;;;;2.40;2.20;;;11.90;99.90;;;;;;6008192;23;20268;-76
2022/12/26 07:00:48;;;;;;;2.83;2.63;;;11.90;99.90;;;;;;5984806;23;20201;-75
2022/12/26 07:03:15;;;;;;;2.25;2.13;;;11.80;99.90;;;;;;5979259;24;20194;-75
2022/12/26 07:05:42;;;;;;;3.17;2.45;;;11.80;99.90;;;;;;5979899;24;20191;-75
2022/12/26 07:08:09;;;;;;;2.40;2.20;;;11.70;99.90;;;;;;5981030;24;20198;-76
2022/12/26 07:10:37;;;;;;;2.40;2.20;;;11.80;99.90;;;;;;5979581;23;20219;-76
2022/12/26 07:13:04;;;;;;;2.42;2.15;;;11.70;99.90;;;;;;5932247;24;20240;-76
2022/12/26 07:15:33;;;;;;;6.75;2.70;;;11.60;99.90;;;;;;5980853;24;20257;-77
2022/12/26 07:18:00;;;;;;;2.97;2.15;;;11.60;99.90;;;;;;5980847;24;20246;-76
2022/12/26 07:20:27;;;;;;;2.40;2.20;;;11.60;99.90;;;;;;5971006;23;20217;-76
2022/12/26 07:22:54;;;;;;;2.45;2.25;;;11.60;99.90;;;;;;6007732;23;20194;-76
2022/12/26 07:25:22;;;;;;;2.55;2.35;;;11.60;99.90;;;;;;6008345;23;20190;-76
2022/12/26 07:27:53;;;;;;;3.15;2.53;;;11.50;99.90;;;;;;5959848;23;20225;-76
2022/12/26 07:30:20;;;;;;;2.92;2.72;;;11.50;99.90;;;;;;5983252;23;20197;-76
2022/12/26 07:32:49;;;;;;;3.58;2.67;;;11.50;99.90;;;;;;6007550;23;20618;-77
2022/12/26 07:35:16;;;;;;;2.70;2.50;;;11.60;99.90;;;;;;6007159;23;20246;-76
2022/12/26 07:37:43;;;;;;;2.45;2.25;;;11.40;99.90;;;;;;6007070;23;20197;-76
2022/12/26 07:40:11;;;;;;;3.03;2.70;;;11.40;99.90;;;;;;6005918;23;20190;-76
2022/12/26 07:42:39;;;;;;;3.10;2.88;;;11.40;99.90;;;;;;6007232;23;20205;-76
2022/12/26 07:45:07;;;;;;;2.70;2.50;;;11.40;99.90;;;;;;6007849;23;20224;-76
2022/12/26 07:47:34;;;;;;;3.85;2.60;;;11.40;99.90;;;;;;6008175;23;20541;-76
2022/12/26 07:50:03;;;;;;;2.80;2.60;;;11.40;99.90;;;;;;5982196;23;20596;-76
2022/12/26 07:52:30;;;;;;;2.72;2.53;;;11.40;99.90;;;;;;5985952;23;20201;-76
2022/12/26 07:54:57;;;;;;;2.72;2.53;;;11.30;99.90;;;;;;5980076;24;20226;-76
2022/12/26 07:57:24;;;;;;;2.72;2.53;;;11.30;99.90;;;;;;5979440;24;20201;-76
2022/12/26 07:59:53;;;;;;;3.67;3.38;;;11.30;99.90;;;;;;5979980;24;20518;-76
2022/12/26 08:02:21;;;;;;;3.08;2.88;;;11.30;99.90;;;;;;5999733;23;20194;-76
2022/12/26 08:04:48;;;;;;;3.72;2.85;;;11.30;99.90;;;;;;6007570;23;20185;-76
2022/12/26 08:07:17;;;;;;;3.00;2.60;;;11.30;99.90;;;;;;5982930;23;20221;-76
2022/12/26 08:09:44;;;;;;;3.50;3.20;;;11.40;99.90;;;;;;6007726;23;20195;-76
2022/12/26 08:12:12;;;;;;;2.70;2.50;;;11.40;99.90;;;;;;5983617;23;20553;-76
2022/12/26 08:14:39;;;;;;;2.50;2.30;;;11.40;99.90;;;;;;6009670;23;20239;-76
2022/12/26 08:17:07;;;;;;;2.75;2.55;;;11.40;99.90;;;;;;5982363;23;20194;-76
2022/12/26 08:19:34;;;;;;;2.90;2.70;;;11.40;99.90;;;;;;5982161;23;20275;-76
2022/12/26 08:22:01;;;;;;;3.50;3.20;;;11.50;99.90;;;;;;5982015;23;20194;-76
2022/12/26 08:24:30;;;;;;;3.78;2.75;;;11.40;99.90;;;;;;6008854;23;20256;-76
2022/12/26 08:26:57;;;;;;;2.97;2.67;;;11.40;99.90;;;;;;6008665;23;20280;-76
2022/12/26 08:29:24;;;;;;;3.55;3.22;;;11.40;99.90;;;;;;6007856;23;20217;-76
2022/12/26 08:31:52;;;;;;;3.63;3.05;;;11.40;99.90;;;;;;6008558;23;20219;-76
2022/12/26 08:34:19;;;;;;;3.20;2.88;;;11.40;99.90;;;;;;6008169;23;20222;-76
2022/12/26 08:36:49;;;;;;;4.05;2.78;;;11.40;99.90;;;;;;6008949;23;20198;-76
2022/12/26 08:39:16;;;;;;;3.20;2.95;;;11.50;99.90;;;;;;6009676;23;20573;-76
2022/12/26 08:41:45;;;;;;;3.22;2.92;;;11.50;99.90;;;;;;6010794;23;20198;-77
2022/12/26 08:44:13;;;;;;;2.72;2.53;;;11.40;99.90;;;;;;6010207;23;20620;-76
2022/12/26 08:46:40;;;;;;;3.55;3.20;;;11.40;99.90;;;;;;5984406;23;20201;-77
2022/12/26 08:49:07;;;;;;;3.60;3.30;;;11.40;99.90;;;;;;6002765;23;20199;-76
2022/12/26 08:51:34;;;;;;;5.03;3.67;;;11.40;99.90;;;;;;5932237;24;20194;-76
2022/12/26 08:54:01;;;;;;;4.32;3.20;;;11.40;99.90;;;;;;5978793;24;20214;-76
2022/12/26 08:56:29;;;;;;;2.88;2.67;;;11.50;99.90;;;;;;5953505;24;20264;-77
2022/12/26 08:58:58;;;;;;;3.67;3.28;;;11.50;99.90;;;;;;5978766;23;20202;-76
2022/12/26 09:01:26;;;;;;;3.63;3.15;;;11.50;99.90;;;;;;6020396;23;20278;-76
2022/12/26 09:03:55;;;;;;;5.15;3.53;;;11.50;99.90;;;;;;6019291;23;20528;-77
2022/12/26 09:06:23;;;;;;;5.32;3.70;;;11.40;99.90;;;;;;6016564;23;20611;-77
2022/12/26 09:08:51;;;;;;;4.38;4.03;;;11.40;99.90;;;;;;6015882;23;20206;-77
2022/12/26 09:11:22;;;;;;;3.80;3.50;;;11.30;99.90;;;;;;6014509;23;20232;-77
2022/12/26 09:13:49;;;;;;;4.00;3.60;;;11.30;99.90;;;;;;6007399;23;20194;-77
2022/12/26 09:16:20;;;;;;;4.30;3.90;;;11.20;99.90;;;;;;6005467;23;20253;-77
2022/12/26 09:18:49;;;;;;;4.22;3.83;;;11.20;99.90;;;;;;6007101;23;20253;-77
2022/12/26 09:21:17;;;;;;;6.28;4.47;;;11.20;99.90;;;;;;6006054;23;20190;-77
2022/12/26 09:23:45;;;;;;;4.70;4.32;;;11.10;99.90;;;;;;6008985;23;20274;-77
2022/12/26 09:26:14;;;;;;;6.05;4.50;;;11.10;99.90;;;;;;6008125;23;20273;-77
2022/12/26 09:28:41;;;;;;;4.75;4.25;;;11.10;99.90;;;;;;6007186;23;20273;-77
2022/12/26 09:31:12;;;;;;;4.95;4.55;;;11.10;99.90;;;;;;6006999;23;20280;-77
2022/12/26 09:33:42;;;;;;;4.55;4.15;;;11.00;99.90;;;;;;6006458;23;20592;-77
2022/12/26 09:36:12;;;;;;;4.85;4.45;;;11.00;99.90;;;;;;6007435;23;20305;-77
2022/12/26 09:38:40;;;;;;;4.82;4.38;;;10.90;99.90;;;;;;6006081;23;20277;-76
2022/12/26 09:41:23;;;;;;;4.78;4.45;;;10.90;99.90;;;;;;5980052;23;20190;-77
2022/12/26 09:44:00;;;;;;;4.25;3.85;;;10.90;99.90;;;;;;6005431;23;20734;-77
2022/12/26 09:46:32;;;;;;;4.32;3.92;;;10.80;99.90;;;;;;5980787;23;20261;-77
2022/12/26 09:49:06;;;;;;;5.28;4.75;;;10.80;99.90;;;;;;6005833;23;20194;-77
2022/12/26 09:51:36;;;;;;;4.00;3.63;;;10.80;99.90;;;;;;6003264;23;20226;-77
2022/12/26 09:54:06;;;;;;;4.80;4.30;;;10.80;99.90;;;;;;6005059;23;20190;-77
2022/12/26 09:56:38;;;;;;;4.72;3.92;;;10.80;99.90;;;;;;6006466;23;20190;-76
2022/12/26 09:59:12;;;;;;;4.30;3.97;;;10.70;99.90;;;;;;6006097;23;20623;-77
2022/12/26 10:01:40;;;;;;;5.10;4.00;;;10.70;99.90;;;;;;5985178;23;20189;-76
2022/12/26 10:04:17;;;;;;;3.88;3.58;;;10.60;99.90;;;;;;5979497;24;20195;-76
2022/12/26 10:06:49;;;;;;;3.85;3.55;;;10.60;99.90;;;;;;5980192;24;20194;-76
2022/12/26 10:09:36;;;;;;;3.97;3.67;;;10.60;99.90;;;;;;5978642;24;20213;-76
2022/12/26 10:12:22;;;;;;;4.13;3.83;;;10.60;99.90;;;;;;5953307;24;20679;-76
2022/12/26 10:14:55;;;;;;;3.40;3.10;;;10.60;99.90;;;;;;5977380;24;20221;-77
2022/12/26 10:17:29;;;;;;;3.10;2.22;;;10.60;99.90;;;;;;5977350;24;20393;-77
2022/12/26 10:20:13;;;;;;;2.55;1.90;;;10.60;99.90;;;;;;5976794;23;20664;-76
2022/12/26 10:23:17;;;;;;;2.83;2.20;;;10.60;99.90;;;;;;5982957;23;20240;-77
2022/12/26 10:25:48;;;;;;;1.80;1.70;;;10.60;99.90;;;;;;6005922;23;20196;-76
2022/12/26 10:28:27;;;;;;;2.10;1.70;;;10.50;99.90;;;;;;5980957;23;20198;-76
2022/12/26 10:30:58;;;;;;;2.60;1.83;;;10.50;99.90;;;;;;6006116;23;20247;-77
2022/12/26 10:33:36;;;;;;;2.05;1.52;;;10.50;99.90;;;;;;6006412;23;20277;-76
2022/12/26 10:36:06;;;;;;;1.75;1.65;;;10.50;99.90;;;;;;6006345;23;20543;-76
2022/12/26 10:38:37;;;;;;;2.15;1.95;;;10.50;99.90;;;;;;6006019;23;20732;-77
2022/12/26 10:41:10;;;;;;;2.40;1.50;;;10.50;99.90;;;;;;5981596;23;20193;-76
2022/12/26 10:43:41;;;;;;;2.10;1.90;;;10.50;99.90;;;;;;5977828;24;20215;-77
2022/12/26 10:46:33;;;;;;;2.45;2.10;;;10.50;99.90;;;;;;5978284;24;20269;-77
2022/12/26 10:49:01;;;;;;;2.58;2.20;;;10.50;99.90;;;;;;5977898;24;20271;-77
2022/12/26 10:51:30;;;;;;;2.42;2.03;;;10.50;99.90;;;;;;5955308;23;20206;-77
2022/12/26 10:53:58;;;;;;;3.60;2.72;;;10.50;99.90;;;;;;5980116;23;20499;-76
2022/12/26 10:56:26;;;;;;;2.30;2.10;;;10.50;99.90;;;;;;5979791;23;20305;-77
2022/12/26 10:59:01;;;;;;;2.78;2.25;;;10.50;99.90;;;;;;6005367;23;20202;-77
2022/12/26 11:01:37;;;;;;;3.78;2.65;;;10.50;99.90;;;;;;6005094;23;20656;-77
2022/12/26 11:04:06;;;;;;;2.35;2.15;;;10.50;99.90;;;;;;6005768;23;20666;-77
2022/12/26 11:06:39;;;;;;;2.92;2.58;;;10.50;99.90;;;;;;6004329;23;20268;-76
2022/12/26 11:09:07;;;;;;;2.50;2.22;;;10.50;99.90;;;;;;5979778;23;20243;-77
2022/12/26 11:11:46;;;;;;;2.97;2.50;;;10.40;99.90;;;;;;5979556;23;20226;-77
2022/12/26 11:14:36;;;;;;;2.95;2.70;;;10.40;99.90;;;;;;6005349;23;20423;-77
2022/12/26 11:17:06;;;;;;;2.70;2.50;;;10.40;99.90;;;;;;6005184;23;20274;-77
2022/12/26 11:19:35;;;;;;;3.22;2.40;;;10.30;99.90;;;;;;6005910;23;20197;-77
2022/12/26 11:22:23;;;;;;;3.03;2.72;;;10.40;99.90;;;;;;6005123;23;20197;-77
2022/12/26 11:25:20;;;;;;;3.30;2.70;;;10.30;99.90;;;;;;6006387;23;20190;-78
2022/12/26 11:27:49;;;;;;;2.88;2.67;;;10.30;99.90;;;;;;5942586;23;20301;-77
2022/12/26 11:30:20;;;;;;;2.78;2.55;;;10.30;99.90;;;;;;6001935;23;20255;-77
2022/12/26 11:32:51;;;;;;;3.03;2.70;;;10.30;99.90;;;;;;6003447;23;20652;-77
2022/12/26 11:35:21;;;;;;;3.10;2.80;;;10.30;99.90;;;;;;6007707;23;20214;-77
2022/12/26 11:37:53;;;;;;;2.25;2.10;;;10.20;99.90;;;;;;5959739;23;20277;-77
2022/12/26 11:40:24;;;;;;;2.10;1.70;;;10.30;99.90;;;;;;5978193;24;20556;-77
2022/12/26 11:42:55;;;;;;;2.15;1.88;;;10.20;99.90;;;;;;5980483;24;20269;-77
2022/12/26 11:45:26;;;;;;;1.75;1.65;;;10.30;99.90;;;;;;5981703;24;20660;-77
2022/12/26 11:47:55;;;;;;;2.83;1.70;;;10.30;99.90;;;;;;5957202;24;20226;-77
2022/12/26 11:50:27;;;;;;;1.77;1.65;;;10.30;99.90;;;;;;5980851;23;20194;-77
2022/12/26 11:53:05;;;;;;;1.70;1.60;;;10.50;99.90;;;;;;5982018;24;20199;-77
2022/12/26 11:55:35;;;;;;;3.10;1.80;;;10.30;99.90;;;;;;5982630;24;20287;-77
2022/12/26 11:58:18;;;;;;;2.00;1.45;;;10.40;99.90;;;;;;5982643;24;20660;-77
2022/12/26 12:01:12;;;;;;;1.50;1.40;;;10.40;99.90;;;;;;5984764;23;20301;-77
2022/12/26 12:03:42;;;;;;;1.20;1.10;;;10.40;99.90;;;;;;5983231;24;20282;-77
2022/12/26 12:06:27;;;;;;;1.90;1.30;;;10.50;99.90;;;;;;5983046;24;20225;-77
2022/12/26 12:09:03;;;;;;;2.25;1.00;;;10.50;99.90;;;;;;5987794;24;20194;-77
2022/12/26 12:11:40;;;;;;;1.20;1.00;;;10.60;99.90;;;;;;5987435;23;20194;-77
2022/12/26 12:14:28;;;;;;;0.80;0.80;;;10.60;99.90;;;;;;5985973;24;20225;-77
2022/12/26 12:17:03;;;;;;;0.90;0.90;;;10.70;99.90;;;;;;5984374;24;20214;-77
2022/12/26 12:19:48;;;;;;;1.60;0.90;;;10.80;99.90;;;;;;5986633;24;20676;-77
2022/12/26 12:22:34;;;;;;;0.80;0.80;;;10.90;99.90;;;;;;5985092;23;20200;-77
2022/12/26 12:25:19;;;;;;;0.90;0.90;;;11.00;99.90;;;;;;5986681;24;20225;-77
2022/12/26 12:27:56;;;;;;;0.90;0.70;;;11.00;99.90;;;;;;5985625;24;20240;-77
2022/12/26 12:30:31;;;;;;;0.70;0.70;;;11.00;99.90;;;;;;5991794;23;20201;-77
2022/12/26 12:33:17;;;;;;;0.82;0.80;;;11.00;99.90;;;;;;6013625;23;20288;-77
2022/12/26 12:35:57;;;;;;;1.00;0.90;;;11.00;99.90;;;;;;6014468;23;20225;-77
2022/12/26 12:38:32;;;;;;;2.00;0.90;;;11.00;99.90;;;;;;6014853;23;20262;-77
2022/12/26 12:41:20;;;;;;;1.33;0.90;;;11.00;99.90;;;;;;6013003;23;20200;-77
2022/12/26 12:43:54;;;;;;;0.80;0.70;;;11.00;99.90;;;;;;6012590;23;20190;-76
2022/12/26 12:46:31;;;;;;;0.70;0.70;;;11.00;99.90;;;;;;6013527;23;20196;-77
2022/12/26 12:49:22;;;;;;;1.00;0.88;;;11.00;99.90;;;;;;6013721;23;20194;-77
2022/12/26 12:51:57;;;;;;;1.98;0.90;;;11.00;99.90;;;;;;6012175;23;20245;-77
2022/12/26 12:54:49;;;;;;;0.80;0.80;;;11.00;99.90;;;;;;6011973;23;20195;-77
2022/12/26 12:57:22;;;;;;;0.80;0.80;;;11.00;99.90;;;;;;5992429;23;20217;-77
2022/12/26 13:00:01;;;;;;;1.00;0.85;;;11.00;99.90;;;;;;5988103;23;20210;-77
2022/12/26 13:02:33;;;;;;;0.70;0.70;;;11.00;99.90;;;;;;6007287;23;20501;-77
2022/12/26 13:05:11;;;;;;;0.90;0.80;;;11.00;99.90;;;;;;6011194;23;20218;-77
2022/12/26 13:07:43;;;;;;;1.25;0.70;;;11.00;99.90;;;;;;5987857;23;20208;-77
2022/12/26 13:10:18;;;;;;;0.82;0.82;;;11.00;99.90;;;;;;6013261;23;20270;-77
2022/12/26 13:12:49;;;;;;;1.35;1.00;;;11.00;99.90;;;;;;5988669;23;20189;-77
2022/12/26 13:15:26;;;;;;;1.13;0.93;;;11.10;99.90;;;;;;5988428;23;20255;-77
2022/12/26 13:18:00;;;;;;;1.35;0.95;;;11.10;99.90;;;;;;5987043;23;20248;-77
2022/12/26 13:20:34;;;;;;;1.10;1.00;;;11.00;99.90;;;;;;6011377;23;20551;-77
2022/12/26 13:26:08;;;;;;;1.10;0.95;;;11.10;99.90;;;;;;6015463;23;20277;-77
2022/12/26 13:28:44;;;;;;;1.50;0.85;;;11.00;99.90;;;;;;6013461;23;20190;-77
2022/12/26 13:31:13;;;;;;;1.10;1.00;;;11.00;99.90;;;;;;6014999;23;20228;-77
2022/12/26 13:33:43;;;;;;;1.00;0.85;;;11.00;99.90;;;;;;6015523;23;20198;-77
2022/12/26 13:36:30;;;;;;;1.30;1.20;;;11.10;99.90;;;;;;6012100;23;20359;-77
2022/12/26 13:39:31;;;;;;;1.02;0.93;;;11.10;99.90;;;;;;5988392;23;20193;-77
2022/12/26 13:44:51;;;;;;;1.35;1.25;;;11.10;99.90;;;;;;6012130;23;20229;-76
2022/12/26 13:47:33;;;;;;;1.40;1.13;;;11.10;99.90;;;;;;6012570;23;20197;-77
2022/12/26 13:50:34;;;;;;;1.13;1.00;;;11.10;99.90;;;;;;5987694;23;20198;-76
2022/12/26 13:53:02;;;;;;;0.93;0.90;;;11.10;99.90;;;;;;6013434;23;20197;-76
2022/12/26 13:55:43;;;;;;;1.00;0.90;;;11.20;99.90;;;;;;6012050;23;20218;-76
2022/12/26 13:58:40;;;;;;;1.10;1.00;;;11.20;99.90;;;;;;6012083;23;20212;-77
2022/12/26 14:01:21;;;;;;;0.80;0.80;;;11.20;99.90;;;;;;5976457;23;20236;-77
2022/12/26 14:04:08;;;;;;;1.00;0.88;;;11.20;99.90;;;;;;6011363;23;20202;-76
2022/12/26 14:07:06;;;;;;;1.00;0.90;;;11.20;99.90;;;;;;6012123;23;20293;-76
2022/12/26 14:09:49;;;;;;;0.80;0.80;;;11.20;99.90;;;;;;6013997;23;20190;-76
2022/12/26 14:12:32;;;;;;;1.17;1.00;;;11.20;99.90;;;;;;5970413;23;20185;-77
2022/12/26 14:15:15;;;;;;;1.35;1.00;;;11.20;99.90;;;;;;6016410;23;20233;-77
2022/12/26 14:17:51;;;;;;;0.80;0.80;;;11.20;99.90;;;;;;5965970;23;20364;-76
2022/12/26 14:20:30;;;;;;;1.08;0.98;;;11.20;99.90;;;;;;5965594;23;20194;-77
2022/12/26 14:23:10;;;;;;;0.90;0.85;;;11.20;99.90;;;;;;6016959;23;20261;-77
2022/12/26 14:25:48;;;;;;;1.33;0.90;;;11.20;99.90;;;;;;6013846;23;20223;-77
2022/12/26 14:28:23;;;;;;;0.88;0.88;;;11.20;99.90;;;;;;6011570;23;20193;-76
2022/12/26 14:31:03;;;;;;;1.10;1.00;;;11.20;99.90;;;;;;6012973;23;20196;-76
2022/12/26 14:33:36;;;;;;;1.30;1.00;;;11.20;99.90;;;;;;6011369;23;20218;-76
2022/12/26 14:36:19;;;;;;;1.30;1.20;;;11.20;99.90;;;;;;6010832;23;20265;-76
2022/12/26 14:38:53;;;;;;;1.15;1.05;;;11.20;99.90;;;;;;6012262;23;20218;-76
2022/12/26 14:44:36;;;;;;;1.17;1.08;;;11.20;99.90;;;;;;5968507;23;20237;-76
2022/12/26 14:47:06;;;;;;;1.27;1.17;;;11.10;99.90;;;;;;6011521;23;20190;-76
2022/12/26 14:49:39;;;;;;;1.67;1.10;;;11.10;99.90;;;;;;6012891;23;20194;-77
2022/12/26 14:52:36;;;;;;;1.13;1.02;;;11.10;99.90;;;;;;6011542;23;20296;-77
2022/12/26 14:55:45;;;;;;;1.48;1.10;;;11.10;99.90;;;;;;6011959;23;20201;-76
2022/12/26 14:58:38;;;;;;;1.10;1.00;;;11.10;99.90;;;;;;6011383;23;20189;-76
2022/12/26 15:01:49;;;;;;;1.60;1.20;;;11.10;99.90;;;;;;6010799;23;20235;-76
2022/12/26 15:04:52;;;;;;;1.10;1.00;;;11.10;99.90;;;;;;5983075;23;20262;-76
2022/12/26 15:07:58;;;;;;;1.10;1.00;;;11.10;99.90;;;;;;5976893;23;20616;-76
2022/12/26 15:10:59;;;;;;;2.30;1.05;;;11.00;99.90;;;;;;5992476;23;20289;-77
2022/12/26 15:14:04;;;;;;;1.40;1.30;;;11.00;99.90;;;;;;5950917;23;20638;-76
2022/12/26 15:16:56;;;;;;;1.30;1.20;;;11.00;99.90;;;;;;6012345;23;20284;-77
2022/12/26 15:19:45;;;;;;;1.50;1.20;;;11.00;99.90;;;;;;6013112;23;20198;-76
2022/12/26 15:22:42;;;;;;;1.60;1.50;;;11.00;99.90;;;;;;6012584;23;20270;-76
2022/12/26 15:25:46;;;;;;;2.30;1.38;;;11.00;99.90;;;;;;6011724;23;20249;-76
2022/12/26 15:28:46;;;;;;;1.50;1.40;;;11.00;99.90;;;;;;5988066;23;20190;-76
2022/12/26 15:31:27;;;;;;;1.77;1.67;;;11.00;99.90;;;;;;5986724;23;20681;-77
2022/12/26 15:34:00;;;;;;;1.58;1.48;;;11.00;99.90;;;;;;6010812;23;20273;-76